Time;durP1;ratioP1;P1;durP2;ratioP2;P2;SDS_P1;SDS_P2;PMS_P1;PMS_P2;Temp;Humidity;BMP_temperature;BMP_pressure;BME280_temperature;BME280_humidity;BME280_pressure;Samples;Min_cycle;Max_cycle;Signal;HPM_P1;HPM_P2
2022/04/25 00:01:14;;;;;;;3.70;1.58;;;;;;;;;;5041519;28;20475;-74
2022/04/25 00:03:40;;;;;;;2.70;0.90;;;;;;;;;;5040511;28;20045;-74
2022/04/25 00:06:06;;;;;;;5.40;0.95;;;;;;;;;;5053762;28;20032;-74
2022/04/25 00:08:32;;;;;;;3.15;0.60;;;;;;;;;;5039194;28;20111;-74
2022/04/25 00:10:58;;;;;;;1.67;0.60;;;;;;;;;;5051177;28;20021;-75
2022/04/25 00:13:24;;;;;;;3.60;1.80;;;;;;;;;;5044390;28;20552;-75
2022/04/25 00:15:52;;;;;;;6.32;1.30;;;;;;;;;;5051158;28;20037;-75
2022/04/25 00:18:18;;;;;;;2.05;0.40;;;;;;;;;;5034894;28;20041;-75
2022/04/25 00:20:44;;;;;;;1.45;0.40;;;;;;;;;;5055455;28;20074;-75
2022/04/25 00:23:10;;;;;;;1.52;0.60;;;;;;;;;;5063092;28;20087;-75
2022/04/25 00:25:37;;;;;;;3.22;1.00;;;;;;;;;;5049611;28;20470;-74
2022/04/25 00:28:04;;;;;;;3.67;1.50;;;;;;;;;;5049364;28;20032;-74
2022/04/25 00:30:30;;;;;;;6.18;2.90;;;;;;;;;;5052000;28;20710;-74
2022/04/25 00:32:57;;;;;;;2.50;0.55;;;;;;;;;;5048014;28;20033;-75
2022/04/25 00:35:23;;;;;;;3.15;1.20;;;;;;;;;;5051135;28;20033;-75
2022/04/25 00:37:49;;;;;;;3.78;1.00;;;;;;;;;;5051420;28;20044;-75
2022/04/25 00:40:16;;;;;;;2.50;0.60;;;;;;;;;;5063568;28;20039;-75
2022/04/25 00:42:42;;;;;;;2.08;0.63;;;;;;;;;;5051767;28;20037;-75
2022/04/25 00:45:11;;;;;;;1.88;0.80;;;;;;;;;;5041362;28;20398;-75
2022/04/25 00:47:38;;;;;;;8.38;1.00;;;;;;;;;;5049413;28;20112;-75
2022/04/25 00:50:04;;;;;;;2.03;0.80;;;;;;;;;;5051830;28;20719;-75
2022/04/25 00:52:30;;;;;;;2.90;0.85;;;;;;;;;;5050966;28;20596;-75
2022/04/25 00:54:57;;;;;;;3.38;1.40;;;;;;;;;;5031893;28;20037;-75
2022/04/25 00:57:24;;;;;;;3.30;0.98;;;;;;;;;;5035217;28;20034;-75
2022/04/25 00:59:50;;;;;;;2.50;0.98;;;;;;;;;;5049820;28;20559;-75
2022/04/25 01:02:16;;;;;;;2.05;0.50;;;;;;;;;;5050883;28;20043;-74
2022/04/25 01:04:43;;;;;;;2.78;0.70;;;;;;;;;;5060940;28;20899;-74
2022/04/25 01:07:09;;;;;;;5.05;0.70;;;;;;;;;;5071422;28;20063;-75
2022/04/25 01:09:35;;;;;;;0.90;0.40;;;;;;;;;;5059642;28;20418;-75
2022/04/25 01:12:01;;;;;;;1.40;0.50;;;;;;;;;;5051238;28;20037;-75
2022/04/25 01:14:27;;;;;;;1.85;0.40;;;;;;;;;;5050910;28;20037;-75
2022/04/25 01:16:54;;;;;;;2.10;0.38;;;;;;;;;;5049605;28;20088;-74
2022/04/25 01:19:20;;;;;;;1.63;0.32;;;;;;;;;;5049194;28;20112;-75
2022/04/25 01:21:57;;;;;;;2.28;0.55;;;;;;;;;;5038270;28;20542;-75
2022/04/25 01:27:17;;;;;;;1.10;0.38;;;;;;;;;;5057777;28;20775;-75
2022/04/25 01:29:44;;;;;;;1.17;0.47;;;;;;;;;;5071370;28;20408;-75
2022/04/25 01:32:10;;;;;;;3.05;0.40;;;;;;;;;;5056939;28;20083;-75
2022/04/25 01:34:37;;;;;;;1.00;0.45;;;;;;;;;;5051142;28;20087;-75
2022/04/25 01:37:16;;;;;;;3.22;1.15;;;;;;;;;;5049131;28;20080;-75
2022/04/25 01:39:46;;;;;;;2.28;0.50;;;;;;;;;;5051474;28;20107;-75
2022/04/25 01:42:12;;;;;;;5.70;1.30;;;;;;;;;;5050028;28;20052;-74
2022/04/25 01:44:39;;;;;;;5.45;1.40;;;;;;;;;;5051058;28;20483;-75
2022/04/25 01:47:06;;;;;;;2.80;0.60;;;;;;;;;;5049903;28;20021;-74
2022/04/25 01:49:35;;;;;;;1.55;0.55;;;;;;;;;;5043959;28;20052;-75
2022/04/25 01:52:04;;;;;;;1.52;0.60;;;;;;;;;;5036214;28;20029;-75
2022/04/25 01:54:32;;;;;;;1.42;0.47;;;;;;;;;;5064864;28;20069;-74
2022/04/25 01:56:58;;;;;;;2.25;0.40;;;;;;;;;;5047816;28;20028;-75
2022/04/25 01:59:24;;;;;;;2.13;0.40;;;;;;;;;;5050469;28;20517;-75
2022/04/25 02:01:51;;;;;;;5.18;0.63;;;;;;;;;;5035040;28;20025;-74
2022/04/25 02:04:18;;;;;;;2.92;0.93;;;;;;;;;;5039142;28;20056;-75
2022/04/25 02:06:44;;;;;;;1.63;0.40;;;;;;;;;;5043469;28;20033;-75
2022/04/25 02:09:10;;;;;;;3.13;0.40;;;;;;;;;;5048077;28;20059;-74
2022/04/25 02:11:36;;;;;;;2.97;0.40;;;;;;;;;;5050235;28;20028;-75
2022/04/25 02:14:02;;;;;;;1.50;0.32;;;;;;;;;;5046421;28;20033;-74
2022/04/25 02:16:28;;;;;;;2.17;0.60;;;;;;;;;;5049695;28;20029;-75
2022/04/25 02:18:55;;;;;;;2.17;0.40;;;;;;;;;;5051852;28;20534;-75
2022/04/25 02:21:21;;;;;;;1.55;0.47;;;;;;;;;;5059386;28;20028;-75
2022/04/25 02:23:48;;;;;;;1.42;0.60;;;;;;;;;;5050033;28;20040;-75
2022/04/25 02:26:14;;;;;;;2.13;0.60;;;;;;;;;;5050040;28;20032;-75
2022/04/25 02:28:40;;;;;;;1.92;0.70;;;;;;;;;;5044220;28;20759;-75
2022/04/25 02:31:07;;;;;;;3.65;0.60;;;;;;;;;;5049720;28;20021;-75
2022/04/25 02:33:33;;;;;;;2.20;0.80;;;;;;;;;;5048847;28;20079;-75
2022/04/25 02:36:00;;;;;;;2.13;0.70;;;;;;;;;;5049850;28;20041;-74
2022/04/25 02:38:26;;;;;;;2.88;0.60;;;;;;;;;;5049923;28;20041;-75
2022/04/25 02:41:04;;;;;;;1.65;0.60;;;;;;;;;;5048919;28;20040;-75
2022/04/25 02:43:36;;;;;;;1.65;0.50;;;;;;;;;;5049623;28;20032;-75
2022/04/25 02:46:03;;;;;;;1.08;0.40;;;;;;;;;;5029598;28;20037;-75
2022/04/25 02:48:30;;;;;;;1.73;0.40;;;;;;;;;;5036607;28;20029;-75
2022/04/25 02:50:56;;;;;;;1.65;0.50;;;;;;;;;;5049121;28;20033;-74
2022/04/25 02:53:24;;;;;;;2.22;0.70;;;;;;;;;;5032134;28;20071;-74
2022/04/25 02:55:51;;;;;;;1.63;0.35;;;;;;;;;;5057753;28;20024;-75
2022/04/25 02:58:17;;;;;;;2.35;0.40;;;;;;;;;;5047956;28;20486;-75
2022/04/25 03:00:46;;;;;;;3.58;0.40;;;;;;;;;;5033143;28;20030;-75
2022/04/25 03:03:12;;;;;;;3.13;0.50;;;;;;;;;;5033737;28;20033;-75
2022/04/25 03:05:38;;;;;;;1.65;0.40;;;;;;;;;;5046062;28;20048;-74
2022/04/25 03:08:04;;;;;;;4.40;0.50;;;;;;;;;;5029198;28;20034;-74
2022/04/25 03:10:30;;;;;;;0.98;0.40;;;;;;;;;;5038911;28;20040;-75
2022/04/25 03:12:56;;;;;;;2.05;0.63;;;;;;;;;;5049480;28;20029;-74
2022/04/25 03:15:23;;;;;;;1.38;0.52;;;;;;;;;;5048698;28;20040;-75
2022/04/25 03:17:49;;;;;;;3.88;0.60;;;;;;;;;;5049381;28;20025;-75
2022/04/25 03:20:15;;;;;;;4.68;0.50;;;;;;;;;;5041730;28;20040;-75
2022/04/25 03:22:41;;;;;;;0.98;0.30;;;;;;;;;;5036945;28;20056;-75
2022/04/25 03:25:07;;;;;;;0.70;0.30;;;;;;;;;;5033358;28;20468;-74
2022/04/25 03:27:33;;;;;;;1.13;0.30;;;;;;;;;;5049496;28;20100;-75
2022/04/25 03:29:59;;;;;;;1.65;0.30;;;;;;;;;;5041094;28;20457;-74
2022/04/25 03:32:25;;;;;;;4.28;0.63;;;;;;;;;;5037874;28;20040;-74
2022/04/25 03:34:52;;;;;;;2.65;0.45;;;;;;;;;;5049070;28;20494;-74
2022/04/25 03:37:17;;;;;;;2.40;0.47;;;;;;;;;;5044038;28;20040;-75
2022/04/25 03:39:43;;;;;;;2.10;0.32;;;;;;;;;;5034765;28;20045;-74
2022/04/25 03:42:09;;;;;;;4.32;0.40;;;;;;;;;;5043972;28;20029;-74
2022/04/25 03:44:36;;;;;;;2.72;0.70;;;;;;;;;;5046730;28;20033;-75
2022/04/25 03:47:02;;;;;;;1.25;0.40;;;;;;;;;;5049887;28;20062;-75
2022/04/25 03:49:28;;;;;;;1.10;0.40;;;;;;;;;;5053174;28;20033;-75
2022/04/25 03:51:54;;;;;;;1.55;0.40;;;;;;;;;;5052465;28;20025;-75
2022/04/25 03:57:10;;;;;;;2.33;0.50;;;;;;;;;;5040438;28;20554;-75
2022/04/25 03:57:12;;;;;;;1.42;0.60;;;;;;;;;;5046353;28;20364;-75
2022/04/25 03:59:38;;;;;;;;;;;;;;;;;;5053252;28;20101;-75
2022/04/25 04:02:04;;;;;;;2.28;0.50;;;;;;;;;;5051822;28;20663;-75
2022/04/25 04:04:30;;;;;;;2.13;0.30;;;;;;;;;;5049166;28;20081;-75
2022/04/25 04:06:57;;;;;;;1.73;0.20;;;;;;;;;;5051217;28;20036;-76
2022/04/25 04:12:10;;;;;;;0.68;0.20;;;;;;;;;;5049227;28;20072;-76
2022/04/25 04:14:36;;;;;;;3.25;0.50;;;;;;;;;;5051309;28;20032;-75
2022/04/25 04:17:02;;;;;;;1.63;0.40;;;;;;;;;;5039518;28;20037;-75
2022/04/25 04:19:28;;;;;;;1.85;0.50;;;;;;;;;;5052668;28;20120;-76
2022/04/25 04:21:54;;;;;;;2.65;0.70;;;;;;;;;;5055437;28;20550;-75
2022/04/25 04:24:20;;;;;;;2.25;0.30;;;;;;;;;;5052188;28;20065;-76
2022/04/25 04:26:46;;;;;;;6.18;0.57;;;;;;;;;;5049999;28;20075;-75
2022/04/25 04:29:12;;;;;;;3.00;0.40;;;;;;;;;;5052230;28;20203;-75
2022/04/25 04:31:38;;;;;;;0.90;0.32;;;;;;;;;;5051600;28;20029;-75
2022/04/25 04:34:04;;;;;;;3.25;0.70;;;;;;;;;;5051611;28;20037;-75
2022/04/25 04:36:30;;;;;;;1.85;0.73;;;;;;;;;;5048634;28;20059;-75
2022/04/25 04:38:56;;;;;;;3.70;1.10;;;;;;;;;;5048855;28;20033;-75
2022/04/25 04:41:22;;;;;;;3.10;1.20;;;;;;;;;;5054940;28;20037;-74
2022/04/25 04:43:49;;;;;;;3.28;0.77;;;;;;;;;;5047605;28;20033;-74
2022/04/25 04:46:15;;;;;;;1.83;0.80;;;;;;;;;;5040982;28;20346;-76
2022/04/25 04:48:41;;;;;;;3.25;0.90;;;;;;;;;;5051344;28;20054;-74
2022/04/25 04:51:08;;;;;;;8.88;0.90;;;;;;;;;;5038867;28;20532;-75
2022/04/25 04:53:34;;;;;;;1.92;0.60;;;;;;;;;;5050448;28;20738;-75
2022/04/25 04:56:00;;;;;;;2.63;0.70;;;;;;;;;;5049848;28;20040;-76
2022/04/25 04:58:27;;;;;;;2.53;0.70;;;;;;;;;;5049248;28;20037;-75
2022/04/25 05:00:54;;;;;;;2.92;1.08;;;;;;;;;;5037975;28;20029;-75
2022/04/25 05:03:20;;;;;;;2.40;0.80;;;;;;;;;;5051492;28;20074;-75
2022/04/25 05:05:46;;;;;;;3.15;0.80;;;;;;;;;;5050476;28;20052;-75
2022/04/25 05:08:12;;;;;;;3.58;0.80;;;;;;;;;;5051571;28;20039;-75
2022/04/25 05:10:40;;;;;;;3.35;0.90;;;;;;;;;;5051010;28;20120;-75
2022/04/25 05:13:06;;;;;;;4.75;0.68;;;;;;;;;;5068353;28;20036;-75
2022/04/25 05:15:32;;;;;;;5.55;0.52;;;;;;;;;;5051056;28;20112;-75
2022/04/25 05:18:00;;;;;;;1.17;0.45;;;;;;;;;;5047491;28;20111;-75
2022/04/25 05:20:26;;;;;;;2.22;0.60;;;;;;;;;;5047230;28;20037;-75
2022/04/25 05:22:53;;;;;;;2.50;0.60;;;;;;;;;;5048290;28;20045;-74
2022/04/25 05:25:19;;;;;;;2.17;0.60;;;;;;;;;;5050825;28;20803;-75
2022/04/25 05:27:46;;;;;;;2.47;0.77;;;;;;;;;;5038311;28;20025;-74
2022/04/25 05:30:13;;;;;;;1.90;0.47;;;;;;;;;;5047080;28;20475;-74
2022/04/25 05:32:44;;;;;;;6.75;1.00;;;;;;;;;;5049326;28;20036;-75
2022/04/25 05:35:11;;;;;;;4.75;0.55;;;;;;;;;;5048414;28;20040;-75
2022/04/25 05:37:38;;;;;;;8.07;0.90;;;;;;;;;;5050055;28;20029;-75
2022/04/25 05:40:04;;;;;;;5.38;1.05;;;;;;;;;;5050146;28;20064;-75
2022/04/25 05:42:30;;;;;;;3.35;0.70;;;;;;;;;;5050129;28;20104;-75
2022/04/25 05:44:56;;;;;;;4.68;0.95;;;;;;;;;;5047066;28;20144;-75
2022/04/25 05:47:22;;;;;;;2.65;0.90;;;;;;;;;;5046177;28;20040;-74
2022/04/25 05:52:34;;;;;;;4.30;1.00;;;;;;;;;;5043409;28;20032;-74
2022/04/25 05:55:00;;;;;;;5.05;1.50;;;;;;;;;;5038930;28;20037;-75
2022/04/25 05:57:26;;;;;;;4.40;1.45;;;;;;;;;;5032368;28;20040;-74
2022/04/25 05:59:52;;;;;;;5.00;1.58;;;;;;;;;;5062036;28;20168;-74
2022/04/25 06:02:18;;;;;;;4.82;1.83;;;;;;;;;;5045002;28;20111;-74
2022/04/25 06:04:44;;;;;;;3.72;1.50;;;;;;;;;;5029681;28;20053;-74
2022/04/25 06:07:10;;;;;;;6.13;2.65;;;;;;;;;;5041590;28;20029;-74
2022/04/25 06:09:36;;;;;;;4.07;1.88;;;;;;;;;;5049738;28;20039;-74
2022/04/25 06:12:02;;;;;;;7.45;2.35;;;;;;;;;;5049789;28;20029;-75
2022/04/25 06:14:32;;;;;;;4.60;1.60;;;;;;;;;;5049452;28;20454;-74
2022/04/25 06:17:01;;;;;;;3.97;1.63;;;;;;;;;;5049642;28;20040;-75
2022/04/25 06:19:27;;;;;;;4.38;1.30;;;;;;;;;;5046463;28;20040;-75
2022/04/25 06:21:53;;;;;;;2.67;0.80;;;;;;;;;;5052266;28;20044;-74
2022/04/25 06:24:19;;;;;;;3.08;0.77;;;;;;;;;;5042067;28;20033;-75
2022/04/25 06:26:47;;;;;;;2.92;0.60;;;;;;;;;;5064639;28;20454;-74
2022/04/25 06:29:13;;;;;;;4.93;0.77;;;;;;;;;;5049358;28;20029;-75
2022/04/25 06:31:39;;;;;;;3.38;0.70;;;;;;;;;;5052996;28;20468;-75
2022/04/25 06:34:05;;;;;;;2.35;0.60;;;;;;;;;;5050287;28;20029;-74
2022/04/25 06:36:32;;;;;;;3.58;0.60;;;;;;;;;;5049898;28;20033;-74
2022/04/25 06:38:58;;;;;;;6.80;0.77;;;;;;;;;;5055204;28;20065;-74
2022/04/25 06:41:24;;;;;;;8.73;0.70;;;;;;;;;;5049695;28;20723;-74
2022/04/25 06:43:50;;;;;;;3.00;0.55;;;;;;;;;;5043009;28;20036;-74
2022/04/25 06:46:16;;;;;;;5.15;1.02;;;;;;;;;;5051689;28;20031;-74
2022/04/25 06:49:19;;;;;;;7.07;1.58;;;;;;;;;;5049114;28;20029;-74
2022/04/25 06:51:30;;;;;;;5.72;1.65;;;;;;;;;;5048676;28;20171;-75
2022/04/25 06:53:56;;;;;;;5.63;1.88;;;;;;;;;;5055294;28;20090;-74
2022/04/25 06:56:22;;;;;;;7.07;1.67;;;;;;;;;;5051035;28;20045;-74
2022/04/25 06:58:48;;;;;;;9.63;1.98;;;;;;;;;;5059924;28;20838;-74
2022/04/25 07:01:14;;;;;;;5.35;1.75;;;;;;;;;;5050102;28;20115;-75
2022/04/25 07:03:40;;;;;;;4.72;1.30;;;;;;;;;;5057974;28;20029;-75
2022/04/25 07:06:06;;;;;;;5.45;1.58;;;;;;;;;;5043175;28;20041;-74
2022/04/25 07:08:33;;;;;;;5.88;1.50;;;;;;;;;;5048536;28;20037;-75
2022/04/25 07:10:59;;;;;;;6.68;1.75;;;;;;;;;;5045264;28;20033;-75
2022/04/25 07:13:25;;;;;;;4.55;1.45;;;;;;;;;;5048533;28;20674;-74
2022/04/25 07:15:51;;;;;;;5.78;1.33;;;;;;;;;;5047999;28;20033;-74
2022/04/25 07:18:17;;;;;;;6.28;2.45;;;;;;;;;;5051732;28;20071;-74
2022/04/25 07:20:43;;;;;;;7.85;2.75;;;;;;;;;;5047600;28;20029;-74
2022/04/25 07:31:05;;;;;;;8.18;3.40;;;;;;;;;;5052467;28;20063;-75
2022/04/25 07:33:33;;;;;;;8.80;2.80;;;;;;;;;;5044467;28;20057;-74
2022/04/25 07:35:59;;;;;;;6.63;2.63;;;;;;;;;;5051889;28;20056;-75
2022/04/25 07:38:25;;;;;;;7.97;4.00;;;;;;;;;;5052919;28;20036;-74
2022/04/25 07:40:51;;;;;;;5.22;2.10;;;;;;;;;;5045318;28;20062;-74
2022/04/25 07:43:17;;;;;;;5.25;2.20;;;;;;;;;;5048284;28;20068;-74
2022/04/25 07:45:43;;;;;;;8.52;1.83;;;;;;;;;;5051582;28;20064;-74
2022/04/25 07:48:09;;;;;;;7.72;1.90;;;;;;;;;;5052714;28;20081;-74
2022/04/25 07:50:36;;;;;;;6.55;1.85;;;;;;;;;;5052146;28;20033;-74
2022/04/25 07:53:02;;;;;;;4.63;1.73;;;;;;;;;;5049792;28;20128;-75
2022/04/25 07:55:29;;;;;;;4.65;1.38;;;;;;;;;;5052415;28;20064;-75
2022/04/25 07:57:55;;;;;;;2.50;1.00;;;;;;;;;;5038028;28;20041;-75
2022/04/25 08:00:21;;;;;;;1.75;0.40;;;;;;;;;;5051282;28;20078;-74
2022/04/25 08:02:47;;;;;;;3.50;0.60;;;;;;;;;;5048331;28;20098;-74
2022/04/25 08:05:12;;;;;;;2.17;0.43;;;;;;;;;;5049027;28;20305;-74
2022/04/25 08:07:38;;;;;;;4.05;0.70;;;;;;;;;;5048841;28;20032;-75
2022/04/25 08:10:05;;;;;;;2.30;0.70;;;;;;;;;;5067365;28;20024;-74
2022/04/25 08:18:00;;;;;;;3.42;1.13;;;;;;;;;;5049497;28;20043;-74
2022/04/25 08:20:28;;;;;;;2.85;1.13;;;;;;;;;;5041117;28;20831;-75
2022/04/25 08:22:54;;;;;;;2.70;1.08;;;;;;;;;;5046888;28;20504;-74
2022/04/25 08:25:20;;;;;;;2.80;1.17;;;;;;;;;;5038975;28;20136;-74
2022/04/25 08:27:46;;;;;;;4.07;1.20;;;;;;;;;;5025283;28;20405;-74
2022/04/25 08:30:12;;;;;;;3.17;1.00;;;;;;;;;;5069247;28;20032;-74
2022/04/25 08:32:38;;;;;;;4.30;1.40;;;;;;;;;;5050293;28;20508;-74
2022/04/25 08:35:04;;;;;;;4.97;1.48;;;;;;;;;;5051026;28;20094;-75
2022/04/25 08:37:30;;;;;;;6.70;1.83;;;;;;;;;;5050945;28;20043;-75
2022/04/25 08:39:56;;;;;;;3.22;1.10;;;;;;;;;;5068351;28;20424;-74
2022/04/25 08:42:23;;;;;;;3.58;1.00;;;;;;;;;;5053064;28;20031;-75
2022/04/25 08:44:51;;;;;;;3.40;1.35;;;;;;;;;;5037431;28;20415;-74
2022/04/25 08:47:17;;;;;;;3.90;1.10;;;;;;;;;;5050973;28;20763;-74
2022/04/25 08:49:44;;;;;;;7.85;2.35;;;;;;;;;;5051612;28;20071;-74
2022/04/25 08:52:11;;;;;;;5.13;1.80;;;;;;;;;;5050534;28;20025;-74
2022/04/25 08:54:37;;;;;;;7.88;2.00;;;;;;;;;;5050990;28;20037;-74
2022/04/25 08:57:04;;;;;;;4.85;1.40;;;;;;;;;;5060664;28;20905;-74
2022/04/25 08:59:33;;;;;;;4.35;1.33;;;;;;;;;;5065885;28;20052;-75
2022/04/25 09:01:59;;;;;;;2.88;1.20;;;;;;;;;;5057642;28;20028;-74
2022/04/25 09:04:25;;;;;;;4.45;1.60;;;;;;;;;;5047650;28;20048;-75
2022/04/25 09:06:52;;;;;;;8.82;2.17;;;;;;;;;;5050437;28;20044;-75
2022/04/25 09:09:18;;;;;;;6.78;1.85;;;;;;;;;;5050045;28;20056;-74
2022/04/25 09:14:31;;;;;;;4.72;1.42;;;;;;;;;;5057406;28;20083;-74
2022/04/25 09:16:57;;;;;;;3.33;1.25;;;;;;;;;;5060970;28;20482;-74
2022/04/25 09:19:23;;;;;;;3.83;1.17;;;;;;;;;;5049638;28;20068;-74
2022/04/25 09:21:49;;;;;;;7.43;2.03;;;;;;;;;;5048163;28;20116;-75
2022/04/25 09:24:20;;;;;;;5.88;1.90;;;;;;;;;;5038043;28;20065;-75
2022/04/25 09:26:46;;;;;;;6.45;2.42;;;;;;;;;;5040068;28;20072;-75
2022/04/25 09:29:12;;;;;;;6.43;1.90;;;;;;;;;;5059123;28;20416;-75
2022/04/25 09:31:48;;;;;;;6.95;2.50;;;;;;;;;;5055468;28;20025;-74
2022/04/25 09:34:15;;;;;;;7.95;2.53;;;;;;;;;;5059667;28;20059;-74
2022/04/25 09:36:47;;;;;;;6.85;2.72;;;;;;;;;;5050770;28;20056;-74
2022/04/25 09:39:30;;;;;;;10.93;3.00;;;;;;;;;;5049190;28;20043;-74
2022/04/25 09:41:56;;;;;;;4.50;1.40;;;;;;;;;;5048434;28;20029;-74
2022/04/25 09:44:23;;;;;;;4.93;1.70;;;;;;;;;;5050465;28;20044;-74
2022/04/25 09:46:49;;;;;;;6.72;1.90;;;;;;;;;;5058931;28;20017;-74
2022/04/25 09:49:20;;;;;;;7.97;2.90;;;;;;;;;;5049580;28;20043;-74
2022/04/25 09:52:05;;;;;;;5.15;2.45;;;;;;;;;;5028307;28;20029;-74
2022/04/25 09:54:31;;;;;;;8.18;3.30;;;;;;;;;;5043131;28;20044;-75
2022/04/25 09:56:57;;;;;;;7.22;3.00;;;;;;;;;;5049247;28;20482;-74
2022/04/25 09:59:23;;;;;;;8.73;3.10;;;;;;;;;;5059443;28;20048;-74
2022/04/25 10:02:04;;;;;;;7.93;3.30;;;;;;;;;;5060933;28;20036;-74
2022/04/25 10:04:33;;;;;;;7.32;3.00;;;;;;;;;;5050115;28;20064;-74
2022/04/25 10:07:03;;;;;;;7.15;2.40;;;;;;;;;;5059567;28;20066;-74
2022/04/25 10:09:30;;;;;;;8.77;2.42;;;;;;;;;;5063813;28;20032;-74
2022/04/25 10:12:00;;;;;;;5.35;1.90;;;;;;;;;;5048434;28;20025;-74
2022/04/25 10:14:27;;;;;;;7.18;2.65;;;;;;;;;;5055234;28;20036;-74
2022/04/25 10:16:55;;;;;;;9.00;3.25;;;;;;;;;;5056856;28;20025;-74
2022/04/25 10:19:21;;;;;;;8.75;4.55;;;;;;;;;;5035177;28;20148;-74
2022/04/25 10:21:48;;;;;;;11.18;5.20;;;;;;;;;;5041445;28;20066;-74
2022/04/25 10:24:19;;;;;;;10.73;4.50;;;;;;;;;;5052919;28;20151;-74
2022/04/25 10:26:47;;;;;;;8.10;3.55;;;;;;;;;;5045477;28;20067;-74
2022/04/25 10:29:15;;;;;;;10.55;4.53;;;;;;;;;;5042027;28;20076;-74
2022/04/25 10:31:42;;;;;;;9.23;4.03;;;;;;;;;;5048404;28;20032;-74
2022/04/25 10:34:09;;;;;;;7.43;3.22;;;;;;;;;;5049128;28;20040;-74
2022/04/25 10:36:38;;;;;;;9.77;3.30;;;;;;;;;;5046064;28;20033;-74
2022/04/25 10:39:13;;;;;;;7.97;3.03;;;;;;;;;;5051529;28;20041;-74
2022/04/25 10:44:26;;;;;;;5.32;2.38;;;;;;;;;;5042915;28;20052;-74
2022/04/25 10:47:09;;;;;;;6.82;2.42;;;;;;;;;;5044803;28;20099;-74
2022/04/25 10:49:36;;;;;;;8.05;2.72;;;;;;;;;;5049501;28;20060;-74
2022/04/25 10:52:03;;;;;;;10.65;2.92;;;;;;;;;;5051870;28;20530;-74
2022/04/25 10:54:47;;;;;;;8.68;2.05;;;;;;;;;;5059047;28;20605;-74
2022/04/25 10:57:16;;;;;;;4.07;1.83;;;;;;;;;;5048589;28;20047;-74
2022/04/25 10:59:42;;;;;;;4.88;1.50;;;;;;;;;;5047370;28;20037;-74
2022/04/25 11:02:21;;;;;;;6.53;2.20;;;;;;;;;;5056038;28;20039;-74
2022/04/25 11:04:47;;;;;;;6.38;1.83;;;;;;;;;;5034342;28;20762;-74
2022/04/25 11:07:21;;;;;;;6.82;1.75;;;;;;;;;;5034444;28;20061;-74
2022/04/25 11:09:47;;;;;;;7.88;2.28;;;;;;;;;;5029374;28;20033;-74
2022/04/25 11:12:14;;;;;;;7.18;2.10;;;;;;;;;;5047991;28;20108;-74
2022/04/25 11:14:57;;;;;;;8.40;2.60;;;;;;;;;;5055804;28;20098;-74
2022/04/25 11:17:23;;;;;;;4.78;1.55;;;;;;;;;;5048194;28;20029;-74
2022/04/25 11:19:56;;;;;;;5.13;1.30;;;;;;;;;;5047874;28;20033;-74
2022/04/25 11:22:29;;;;;;;5.80;1.88;;;;;;;;;;5035781;28;20052;-74
2022/04/25 11:24:55;;;;;;;2.78;0.95;;;;;;;;;;5047616;28;20068;-74
2022/04/25 11:27:21;;;;;;;3.15;1.02;;;;;;;;;;5039822;28;20028;-74
2022/04/25 11:30:07;;;;;;;3.40;0.95;;;;;;;;;;5051024;28;20044;-74
2022/04/25 11:32:37;;;;;;;5.65;2.10;;;;;;;;;;5046523;28;20485;-74
2022/04/25 11:35:04;;;;;;;3.42;1.52;;;;;;;;;;5038459;28;20121;-74
2022/04/25 11:37:32;;;;;;;3.45;0.80;;;;;;;;;;5052856;28;20033;-74
2022/04/25 11:39:59;;;;;;;2.80;0.63;;;;;;;;;;5048170;28;20044;-74
2022/04/25 11:42:29;;;;;;;2.45;0.68;;;;;;;;;;5044549;28;20698;-74
2022/04/25 11:44:56;;;;;;;9.02;3.45;;;;;;;;;;5057430;28;20037;-74
2022/04/25 11:47:22;;;;;;;9.65;7.13;;;;;;;;;;5041091;28;20056;-74
2022/04/25 11:49:55;;;;;;;4.68;1.83;;;;;;;;;;5048708;28;20515;-74
2022/04/25 11:52:22;;;;;;;3.33;0.85;;;;;;;;;;5048111;28;20111;-74
2022/04/25 11:54:49;;;;;;;4.88;1.20;;;;;;;;;;5048153;28;20162;-74
2022/04/25 11:57:15;;;;;;;3.70;0.95;;;;;;;;;;5045459;28;20112;-74
2022/04/25 11:59:41;;;;;;;2.20;0.77;;;;;;;;;;5048343;28;20044;-74
2022/04/25 12:02:07;;;;;;;3.35;0.80;;;;;;;;;;5050767;28;20075;-74
2022/04/25 12:04:33;;;;;;;3.50;0.82;;;;;;;;;;5051562;28;20668;-74
2022/04/25 12:06:59;;;;;;;2.03;0.70;;;;;;;;;;5060162;28;20036;-74
2022/04/25 12:15:37;;;;;;;3.28;1.35;;;;;;;;;;5054692;28;20047;-74
2022/04/25 12:18:19;;;;;;;2.50;0.80;;;;;;;;;;5054616;28;20900;-74
2022/04/25 12:20:49;;;;;;;3.50;1.20;;;;;;;;;;5051431;28;20033;-74
2022/04/25 12:23:25;;;;;;;3.35;0.63;;;;;;;;;;5051056;28;20486;-74
2022/04/25 12:25:53;;;;;;;3.13;0.82;;;;;;;;;;5058210;28;20041;-74
2022/04/25 12:28:20;;;;;;;4.30;0.90;;;;;;;;;;5051191;28;20132;-75
2022/04/25 12:30:56;;;;;;;1.83;0.70;;;;;;;;;;5060173;28;20108;-74
2022/04/25 12:33:32;;;;;;;3.83;0.90;;;;;;;;;;5038361;28;20037;-74
2022/04/25 12:36:20;;;;;;;2.95;1.05;;;;;;;;;;5045417;28;20025;-74
2022/04/25 12:38:52;;;;;;;3.55;1.20;;;;;;;;;;5047708;28;20044;-74
2022/04/25 12:41:18;;;;;;;;;;;;;;;;;;5059483;28;20024;-74
2022/04/25 12:43:45;;;;;;;2.83;0.77;;;;;;;;;;5031541;28;20433;-75
2022/04/25 12:46:12;;;;;;;1.98;0.70;;;;;;;;;;5050267;28;20032;-74
2022/04/25 12:48:57;;;;;;;3.08;0.75;;;;;;;;;;5051125;28;20865;-75
2022/04/25 12:51:33;;;;;;;2.90;0.52;;;;;;;;;;5057514;28;20036;-74
2022/04/25 12:53:59;;;;;;;4.82;0.88;;;;;;;;;;5060297;28;20033;-74
2022/04/25 12:56:30;;;;;;;3.22;0.88;;;;;;;;;;5051672;28;20041;-74
2022/04/25 12:58:56;;;;;;;2.60;0.80;;;;;;;;;;5057649;28;20086;-74
2022/04/25 13:01:41;;;;;;;4.30;1.23;;;;;;;;;;5045183;28;20029;-75
2022/04/25 13:04:14;;;;;;;2.55;1.15;;;;;;;;;;5043552;28;20045;-74
2022/04/25 13:06:41;;;;;;;4.68;1.20;;;;;;;;;;5065145;28;20024;-74
2022/04/25 13:09:07;;;;;;;3.67;1.00;;;;;;;;;;5053589;28;20043;-74
2022/04/25 13:11:34;;;;;;;3.17;0.95;;;;;;;;;;5063129;28;20032;-74
2022/04/25 13:14:00;;;;;;;4.25;1.20;;;;;;;;;;5051601;28;20087;-74
2022/04/25 13:16:27;;;;;;;4.10;0.90;;;;;;;;;;5059412;28;20032;-74
2022/04/25 13:18:53;;;;;;;5.47;2.75;;;;;;;;;;5050603;28;20045;-74
2022/04/25 13:21:19;;;;;;;3.25;1.38;;;;;;;;;;5050236;28;20057;-74
2022/04/25 13:23:48;;;;;;;3.22;1.20;;;;;;;;;;5057223;28;20052;-74
2022/04/25 13:26:14;;;;;;;3.13;0.90;;;;;;;;;;5051089;28;20675;-74
2022/04/25 13:28:41;;;;;;;2.58;1.00;;;;;;;;;;5051994;28;20033;-75
2022/04/25 13:31:06;;;;;;;3.90;0.93;;;;;;;;;;5060377;28;20025;-74
2022/04/25 13:33:33;;;;;;;3.67;1.10;;;;;;;;;;5061055;28;20033;-74
2022/04/25 13:35:58;;;;;;;2.55;1.00;;;;;;;;;;5053070;28;20466;-74
2022/04/25 13:38:27;;;;;;;2.35;1.00;;;;;;;;;;5047518;28;20047;-74
2022/04/25 13:40:53;;;;;;;3.05;1.30;;;;;;;;;;5051194;28;20049;-74
2022/04/25 13:43:19;;;;;;;3.05;1.05;;;;;;;;;;5052386;28;20491;-74
2022/04/25 13:45:45;;;;;;;4.20;1.10;;;;;;;;;;5056762;28;20074;-74
2022/04/25 13:48:16;;;;;;;3.33;1.10;;;;;;;;;;5059533;28;20115;-74
2022/04/25 13:50:42;;;;;;;3.50;1.08;;;;;;;;;;5056594;28;20021;-74
2022/04/25 13:53:08;;;;;;;3.92;1.23;;;;;;;;;;5047802;28;20033;-75
2022/04/25 13:55:34;;;;;;;3.33;1.00;;;;;;;;;;5047891;28;20032;-74
2022/04/25 13:58:03;;;;;;;3.55;0.77;;;;;;;;;;5042128;28;20146;-74
2022/04/25 14:00:29;;;;;;;2.78;1.00;;;;;;;;;;5050076;28;20029;-74
2022/04/25 14:03:09;;;;;;;2.33;0.90;;;;;;;;;;5046134;28;20064;-74
2022/04/25 14:05:37;;;;;;;5.07;1.30;;;;;;;;;;5033447;28;20412;-74
2022/04/25 14:08:05;;;;;;;5.55;1.10;;;;;;;;;;5048818;28;20136;-74
2022/04/25 14:10:31;;;;;;;3.25;1.10;;;;;;;;;;5051839;28;20024;-74
2022/04/25 14:12:57;;;;;;;3.65;1.42;;;;;;;;;;5047921;28;20037;-74
2022/04/25 14:15:23;;;;;;;4.05;1.15;;;;;;;;;;5048484;28;20029;-74
2022/04/25 14:17:49;;;;;;;3.88;1.38;;;;;;;;;;5052331;28;20037;-74
2022/04/25 14:20:16;;;;;;;4.63;1.35;;;;;;;;;;5059578;28;20458;-74
2022/04/25 14:22:42;;;;;;;4.20;1.25;;;;;;;;;;5060049;28;20708;-74
2022/04/25 14:25:08;;;;;;;5.28;1.30;;;;;;;;;;5050858;28;166820;-74
2022/04/25 14:27:38;;;;;;;3.67;1.33;;;;;;;;;;5048869;28;20544;-74
2022/04/25 14:30:09;;;;;;;5.85;1.13;;;;;;;;;;5047749;28;20167;-74
2022/04/25 14:32:35;;;;;;;6.15;1.67;;;;;;;;;;5056026;28;20075;-74
2022/04/25 14:35:01;;;;;;;4.32;1.30;;;;;;;;;;5052102;28;20056;-74
2022/04/25 14:37:27;;;;;;;7.30;1.70;;;;;;;;;;5050815;28;20670;-74
2022/04/25 14:39:53;;;;;;;6.70;2.00;;;;;;;;;;5043015;28;20060;-74
2022/04/25 14:42:19;;;;;;;7.68;1.95;;;;;;;;;;5031600;28;20036;-74
2022/04/25 14:44:45;;;;;;;5.50;1.77;;;;;;;;;;5049613;28;20037;-75
2022/04/25 14:47:12;;;;;;;3.88;1.52;;;;;;;;;;5049330;28;20067;-74
2022/04/25 14:55:07;;;;;;;4.22;1.55;;;;;;;;;;5048228;28;20091;-74
2022/04/25 14:57:34;;;;;;;7.78;1.60;;;;;;;;;;5052747;28;20722;-74
2022/04/25 15:00:00;;;;;;;6.90;1.30;;;;;;;;;;5048801;28;20056;-74
2022/04/25 15:02:26;;;;;;;2.83;1.20;;;;;;;;;;5048505;28;20087;-74
2022/04/25 15:04:52;;;;;;;2.70;0.90;;;;;;;;;;5051105;28;20037;-74
2022/04/25 15:07:18;;;;;;;3.88;1.23;;;;;;;;;;5049022;28;20474;-74
2022/04/25 15:09:46;;;;;;;3.17;1.00;;;;;;;;;;5052423;28;20029;-74
2022/04/25 15:12:12;;;;;;;6.85;1.45;;;;;;;;;;5046633;28;20626;-74
2022/04/25 15:14:38;;;;;;;5.85;1.30;;;;;;;;;;5052570;28;20107;-74
2022/04/25 15:17:04;;;;;;;3.60;1.10;;;;;;;;;;5047864;28;20129;-75
2022/04/25 15:19:30;;;;;;;3.22;1.08;;;;;;;;;;5054630;28;20033;-74
2022/04/25 15:21:58;;;;;;;2.35;0.90;;;;;;;;;;5048359;28;20087;-74
2022/04/25 15:24:24;;;;;;;3.70;0.90;;;;;;;;;;5052532;28;20068;-74